sensor_id;sensor_type;location;lat;lon;timestamp;pressure;altitude;pressure_sealevel;temperature;humidity
6132;BME280;3097;42.692;23.278;2022-08-20T00:00:18;94594.28;;;25.95;54.79
6132;BME280;3097;42.692;23.278;2022-08-20T00:02:47;94586.13;;;25.88;55.09
6132;BME280;3097;42.692;23.278;2022-08-20T00:05:18;94610.38;;;26.02;54.80
6132;BME280;3097;42.692;23.278;2022-08-20T00:07:44;94605.34;;;26.09;54.68
6132;BME280;3097;42.692;23.278;2022-08-20T00:10:10;94609.75;;;26.05;55.11
6132;BME280;3097;42.692;23.278;2022-08-20T00:12:36;94612.38;;;26.05;55.04
6132;BME280;3097;42.692;23.278;2022-08-20T00:15:04;94617.34;;;26.06;55.09
6132;BME280;3097;42.692;23.278;2022-08-20T00:17:29;94594.97;;;25.92;54.82
6132;BME280;3097;42.692;23.278;2022-08-20T00:20:04;94592.25;;;25.79;55.86
6132;BME280;3097;42.692;23.278;2022-08-20T00:22:31;94618.00;;;26.03;55.44
6132;BME280;3097;42.692;23.278;2022-08-20T00:24:57;94623.66;;;26.14;55.96
6132;BME280;3097;42.692;23.278;2022-08-20T00:27:23;94618.47;;;26.17;56.13
6132;BME280;3097;42.692;23.278;2022-08-20T00:29:48;94617.06;;;26.20;56.19
6132;BME280;3097;42.692;23.278;2022-08-20T00:32:14;94605.94;;;26.14;56.46
6132;BME280;3097;42.692;23.278;2022-08-20T00:34:39;94616.59;;;26.06;56.75
6132;BME280;3097;42.692;23.278;2022-08-20T00:37:05;94608.19;;;26.04;56.90
6132;BME280;3097;42.692;23.278;2022-08-20T00:39:31;94614.41;;;25.87;57.55
6132;BME280;3097;42.692;23.278;2022-08-20T00:41:57;94622.22;;;25.83;57.54
6132;BME280;3097;42.692;23.278;2022-08-20T00:44:23;94618.53;;;25.76;58.48
6132;BME280;3097;42.692;23.278;2022-08-20T00:46:50;94619.78;;;25.78;57.97
6132;BME280;3097;42.692;23.278;2022-08-20T00:49:22;94615.66;;;25.69;58.26
6132;BME280;3097;42.692;23.278;2022-08-20T00:52:06;94608.75;;;25.56;58.42
6132;BME280;3097;42.692;23.278;2022-08-20T00:54:53;94610.47;;;25.52;58.73
6132;BME280;3097;42.692;23.278;2022-08-20T00:57:28;94597.25;;;25.31;59.24
6132;BME280;3097;42.692;23.278;2022-08-20T00:59:56;94605.03;;;25.27;59.12
6132;BME280;3097;42.692;23.278;2022-08-20T01:02:24;94590.28;;;25.26;59.79
6132;BME280;3097;42.692;23.278;2022-08-20T01:04:52;94593.25;;;25.25;59.77
6132;BME280;3097;42.692;23.278;2022-08-20T01:07:23;94582.88;;;25.20;59.99
6132;BME280;3097;42.692;23.278;2022-08-20T01:09:58;94587.53;;;25.23;60.27
6132;BME280;3097;42.692;23.278;2022-08-20T01:12:28;94573.41;;;25.19;60.59
6132;BME280;3097;42.692;23.278;2022-08-20T01:14:54;94579.81;;;25.18;60.72
6132;BME280;3097;42.692;23.278;2022-08-20T01:17:22;94586.34;;;25.12;60.97
6132;BME280;3097;42.692;23.278;2022-08-20T01:19:59;94585.44;;;25.08;61.11
6132;BME280;3097;42.692;23.278;2022-08-20T01:23:00;94574.03;;;24.95;61.29
6132;BME280;3097;42.692;23.278;2022-08-20T01:25:49;94581.03;;;24.91;61.56
6132;BME280;3097;42.692;23.278;2022-08-20T01:28:22;94581.97;;;24.86;61.88
6132;BME280;3097;42.692;23.278;2022-08-20T01:30:48;94586.31;;;24.82;62.29
6132;BME280;3097;42.692;23.278;2022-08-20T01:33:16;94570.72;;;24.68;62.00
6132;BME280;3097;42.692;23.278;2022-08-20T01:35:42;94579.22;;;24.74;62.34
6132;BME280;3097;42.692;23.278;2022-08-20T01:38:08;94575.97;;;24.68;61.79
6132;BME280;3097;42.692;23.278;2022-08-20T01:43:11;94574.09;;;24.78;61.72
6132;BME280;3097;42.692;23.278;2022-08-20T01:45:37;94561.88;;;24.73;62.35
6132;BME280;3097;42.692;23.278;2022-08-20T01:48:04;94563.56;;;24.69;61.87
6132;BME280;3097;42.692;23.278;2022-08-20T01:50:31;94557.22;;;24.70;61.72
6132;BME280;3097;42.692;23.278;2022-08-20T01:53:16;94558.47;;;24.73;61.37
6132;BME280;3097;42.692;23.278;2022-08-20T01:55:42;94567.47;;;24.63;61.01
6132;BME280;3097;42.692;23.278;2022-08-20T01:58:08;94568.06;;;24.68;61.02
6132;BME280;3097;42.692;23.278;2022-08-20T02:03:09;94575.13;;;24.85;61.97
6132;BME280;3097;42.692;23.278;2022-08-20T02:05:35;94569.25;;;24.88;61.53
6132;BME280;3097;42.692;23.278;2022-08-20T02:08:01;94569.41;;;24.83;61.67
6132;BME280;3097;42.692;23.278;2022-08-20T02:10:26;94560.72;;;24.83;61.93
6132;BME280;3097;42.692;23.278;2022-08-20T02:12:52;94566.91;;;24.87;61.59
6132;BME280;3097;42.692;23.278;2022-08-20T02:15:18;94555.03;;;24.72;62.09
6132;BME280;3097;42.692;23.278;2022-08-20T02:17:44;94564.00;;;24.80;62.25
6132;BME280;3097;42.692;23.278;2022-08-20T02:20:13;94564.81;;;24.72;61.87
6132;BME280;3097;42.692;23.278;2022-08-20T02:22:44;94562.19;;;24.72;62.20
6132;BME280;3097;42.692;23.278;2022-08-20T02:25:13;94556.78;;;24.59;61.87
6132;BME280;3097;42.692;23.278;2022-08-20T02:27:42;94558.22;;;24.57;62.32
6132;BME280;3097;42.692;23.278;2022-08-20T02:30:13;94563.75;;;24.64;62.58
6132;BME280;3097;42.692;23.278;2022-08-20T02:32:40;94565.16;;;24.61;62.16
6132;BME280;3097;42.692;23.278;2022-08-20T02:35:07;94567.34;;;24.59;62.80
6132;BME280;3097;42.692;23.278;2022-08-20T02:37:35;94571.50;;;24.60;63.28
6132;BME280;3097;42.692;23.278;2022-08-20T02:40:04;94564.09;;;24.54;63.31
6132;BME280;3097;42.692;23.278;2022-08-20T02:42:31;94560.84;;;24.57;62.79
6132;BME280;3097;42.692;23.278;2022-08-20T02:44:56;94562.56;;;24.53;63.25
6132;BME280;3097;42.692;23.278;2022-08-20T02:47:22;94573.59;;;24.46;63.87
6132;BME280;3097;42.692;23.278;2022-08-20T02:49:49;94571.91;;;24.42;64.16
6132;BME280;3097;42.692;23.278;2022-08-20T02:52:14;94570.06;;;24.34;64.25
6132;BME280;3097;42.692;23.278;2022-08-20T02:54:40;94582.19;;;24.26;64.39
6132;BME280;3097;42.692;23.278;2022-08-20T02:57:11;94579.38;;;24.22;64.88
6132;BME280;3097;42.692;23.278;2022-08-20T02:59:37;94585.88;;;24.16;64.87
6132;BME280;3097;42.692;23.278;2022-08-20T03:02:02;94561.13;;;23.91;65.01
6132;BME280;3097;42.692;23.278;2022-08-20T03:04:28;94586.06;;;24.11;65.31
6132;BME280;3097;42.692;23.278;2022-08-20T03:06:54;94561.00;;;23.88;65.67
6132;BME280;3097;42.692;23.278;2022-08-20T03:09:20;94583.44;;;23.94;66.25
6132;BME280;3097;42.692;23.278;2022-08-20T03:11:46;94582.66;;;23.93;66.18
6132;BME280;3097;42.692;23.278;2022-08-20T03:14:11;94554.84;;;23.75;66.00
6132;BME280;3097;42.692;23.278;2022-08-20T03:16:36;94570.47;;;23.72;66.22
6132;BME280;3097;42.692;23.278;2022-08-20T03:19:02;94581.75;;;23.72;66.17
6132;BME280;3097;42.692;23.278;2022-08-20T03:21:27;94583.44;;;23.77;66.42
6132;BME280;3097;42.692;23.278;2022-08-20T03:23:53;94583.63;;;23.80;66.23
6132;BME280;3097;42.692;23.278;2022-08-20T03:26:18;94579.91;;;23.81;65.73
6132;BME280;3097;42.692;23.278;2022-08-20T03:28:44;94587.81;;;23.81;66.33
6132;BME280;3097;42.692;23.278;2022-08-20T03:31:10;94592.00;;;23.82;66.49
6132;BME280;3097;42.692;23.278;2022-08-20T03:33:35;94593.97;;;23.77;66.31
6132;BME280;3097;42.692;23.278;2022-08-20T03:36:05;94568.78;;;23.59;66.93
6132;BME280;3097;42.692;23.278;2022-08-20T03:38:30;94588.59;;;23.73;66.85
6132;BME280;3097;42.692;23.278;2022-08-20T03:40:56;94597.69;;;23.76;67.35
6132;BME280;3097;42.692;23.278;2022-08-20T03:43:22;94583.00;;;23.66;67.27
6132;BME280;3097;42.692;23.278;2022-08-20T03:45:48;94584.41;;;23.72;66.97
6132;BME280;3097;42.692;23.278;2022-08-20T03:48:18;94595.88;;;23.68;67.20
6132;BME280;3097;42.692;23.278;2022-08-20T03:50:44;94596.00;;;23.63;67.32
6132;BME280;3097;42.692;23.278;2022-08-20T03:53:12;94575.38;;;23.47;67.61
6132;BME280;3097;42.692;23.278;2022-08-20T03:55:38;94606.69;;;23.58;67.67
6132;BME280;3097;42.692;23.278;2022-08-20T03:58:06;94605.75;;;23.53;68.16
6132;BME280;3097;42.692;23.278;2022-08-20T04:00:40;94606.84;;;23.52;68.77
6132;BME280;3097;42.692;23.278;2022-08-20T04:03:06;94600.47;;;23.53;68.46
6132;BME280;3097;42.692;23.278;2022-08-20T04:05:33;94609.94;;;23.54;68.91
6132;BME280;3097;42.692;23.278;2022-08-20T04:08:02;94610.41;;;23.57;68.61
6132;BME280;3097;42.692;23.278;2022-08-20T04:10:28;94602.66;;;23.51;68.46
6132;BME280;3097;42.692;23.278;2022-08-20T04:12:54;94603.88;;;23.54;68.67
6132;BME280;3097;42.692;23.278;2022-08-20T04:15:20;94612.44;;;23.60;68.94
6132;BME280;3097;42.692;23.278;2022-08-20T04:17:49;94602.97;;;23.59;68.71
6132;BME280;3097;42.692;23.278;2022-08-20T04:20:17;94606.69;;;23.66;68.76
6132;BME280;3097;42.692;23.278;2022-08-20T04:22:49;94605.16;;;23.74;68.30
6132;BME280;3097;42.692;23.278;2022-08-20T04:25:15;94612.56;;;23.80;68.08
6132;BME280;3097;42.692;23.278;2022-08-20T04:27:40;94617.97;;;23.84;68.45
6132;BME280;3097;42.692;23.278;2022-08-20T04:30:08;94598.03;;;23.74;68.29
6132;BME280;3097;42.692;23.278;2022-08-20T04:32:36;94590.28;;;23.78;67.89
6132;BME280;3097;42.692;23.278;2022-08-20T04:35:06;94605.59;;;24.02;67.55
6132;BME280;3097;42.692;23.278;2022-08-20T04:37:33;94611.94;;;24.09;67.28
6132;BME280;3097;42.692;23.278;2022-08-20T04:40:11;94611.75;;;24.14;67.83
6132;BME280;3097;42.692;23.278;2022-08-20T04:42:56;94606.97;;;24.16;67.48
6132;BME280;3097;42.692;23.278;2022-08-20T04:45:22;94620.59;;;24.36;67.11
6132;BME280;3097;42.692;23.278;2022-08-20T04:47:48;94627.81;;;24.56;66.97
6132;BME280;3097;42.692;23.278;2022-08-20T04:50:15;94620.59;;;24.82;65.99
6132;BME280;3097;42.692;23.278;2022-08-20T04:52:41;94624.69;;;25.09;65.16
6132;BME280;3097;42.692;23.278;2022-08-20T04:55:07;94614.44;;;25.37;64.23
6132;BME280;3097;42.692;23.278;2022-08-20T04:57:33;94591.78;;;25.57;63.04
6132;BME280;3097;42.692;23.278;2022-08-20T05:00:13;94602.91;;;26.04;62.23
6132;BME280;3097;42.692;23.278;2022-08-20T05:02:40;94595.56;;;26.30;60.94
6132;BME280;3097;42.692;23.278;2022-08-20T05:05:07;94607.28;;;26.78;59.51
6132;BME280;3097;42.692;23.278;2022-08-20T05:07:40;94617.69;;;27.19;58.59
6132;BME280;3097;42.692;23.278;2022-08-20T05:10:07;94616.25;;;27.58;57.36
6132;BME280;3097;42.692;23.278;2022-08-20T05:12:33;94593.06;;;27.95;55.34
6132;BME280;3097;42.692;23.278;2022-08-20T05:14:58;94610.19;;;28.57;55.08
6132;BME280;3097;42.692;23.278;2022-08-20T05:17:24;94609.06;;;29.02;52.68
6132;BME280;3097;42.692;23.278;2022-08-20T05:19:51;94617.09;;;29.56;50.92
6132;BME280;3097;42.692;23.278;2022-08-20T05:22:17;94606.03;;;29.89;50.06
6132;BME280;3097;42.692;23.278;2022-08-20T05:24:43;94603.50;;;30.34;49.64
6132;BME280;3097;42.692;23.278;2022-08-20T05:27:08;94600.66;;;30.66;48.88
6132;BME280;3097;42.692;23.278;2022-08-20T05:29:34;94598.53;;;31.01;47.93
6132;BME280;3097;42.692;23.278;2022-08-20T05:31:59;94593.25;;;31.28;46.33
6132;BME280;3097;42.692;23.278;2022-08-20T05:34:26;94594.34;;;31.53;45.79
6132;BME280;3097;42.692;23.278;2022-08-20T05:36:51;94590.22;;;31.85;45.33
6132;BME280;3097;42.692;23.278;2022-08-20T05:39:19;94567.94;;;32.04;43.95
6132;BME280;3097;42.692;23.278;2022-08-20T05:41:45;94569.41;;;32.32;43.31
6132;BME280;3097;42.692;23.278;2022-08-20T05:44:11;94565.56;;;32.29;43.00
6132;BME280;3097;42.692;23.278;2022-08-20T05:46:41;94583.44;;;32.65;43.27
6132;BME280;3097;42.692;23.278;2022-08-20T05:49:08;94582.91;;;32.93;42.58
6132;BME280;3097;42.692;23.278;2022-08-20T05:51:35;94598.44;;;33.25;42.02
6132;BME280;3097;42.692;23.278;2022-08-20T05:54:03;94595.56;;;33.51;41.30
6132;BME280;3097;42.692;23.278;2022-08-20T05:56:29;94579.59;;;33.69;40.65
6132;BME280;3097;42.692;23.278;2022-08-20T05:58:55;94576.78;;;34.24;41.15
6132;BME280;3097;42.692;23.278;2022-08-20T06:01:21;94578.75;;;34.55;40.56
6132;BME280;3097;42.692;23.278;2022-08-20T06:03:46;94571.91;;;34.93;39.89
6132;BME280;3097;42.692;23.278;2022-08-20T06:06:31;94576.44;;;35.21;38.42
6132;BME280;3097;42.692;23.278;2022-08-20T06:08:56;94581.44;;;35.40;38.37
6132;BME280;3097;42.692;23.278;2022-08-20T06:11:21;94582.53;;;35.53;38.72
6132;BME280;3097;42.692;23.278;2022-08-20T06:13:47;94568.72;;;35.62;38.63
6132;BME280;3097;42.692;23.278;2022-08-20T06:16:13;94569.06;;;35.82;38.51
6132;BME280;3097;42.692;23.278;2022-08-20T06:18:38;94580.84;;;36.05;37.09
6132;BME280;3097;42.692;23.278;2022-08-20T06:21:04;94589.56;;;36.27;37.47
6132;BME280;3097;42.692;23.278;2022-08-20T06:23:30;94586.75;;;36.49;37.34
6132;BME280;3097;42.692;23.278;2022-08-20T06:25:55;94587.09;;;36.54;37.60
6132;BME280;3097;42.692;23.278;2022-08-20T06:28:21;94562.66;;;36.34;36.16
6132;BME280;3097;42.692;23.278;2022-08-20T06:30:46;94582.56;;;36.40;35.32
6132;BME280;3097;42.692;23.278;2022-08-20T06:33:12;94577.81;;;36.62;35.67
6132;BME280;3097;42.692;23.278;2022-08-20T06:35:37;94577.06;;;36.62;35.36
6132;BME280;3097;42.692;23.278;2022-08-20T06:38:04;94577.06;;;36.62;35.73
6132;BME280;3097;42.692;23.278;2022-08-20T06:40:30;94570.19;;;36.61;35.49
6132;BME280;3097;42.692;23.278;2022-08-20T06:42:56;94576.56;;;36.15;35.72
6132;BME280;3097;42.692;23.278;2022-08-20T06:45:25;94575.41;;;36.20;36.07
6132;BME280;3097;42.692;23.278;2022-08-20T06:47:54;94569.69;;;36.11;35.71
6132;BME280;3097;42.692;23.278;2022-08-20T06:50:29;94575.59;;;35.77;36.54
6132;BME280;3097;42.692;23.278;2022-08-20T06:52:55;94556.53;;;35.11;37.78
6132;BME280;3097;42.692;23.278;2022-08-20T06:55:21;94574.19;;;34.77;38.19
6132;BME280;3097;42.692;23.278;2022-08-20T06:57:46;94573.38;;;34.44;39.37
6132;BME280;3097;42.692;23.278;2022-08-20T07:00:19;94574.50;;;34.43;40.06
6132;BME280;3097;42.692;23.278;2022-08-20T07:02:45;94570.72;;;34.55;39.95
6132;BME280;3097;42.692;23.278;2022-08-20T07:05:12;94565.34;;;34.51;39.64
6132;BME280;3097;42.692;23.278;2022-08-20T07:07:38;94558.44;;;34.33;40.09
6132;BME280;3097;42.692;23.278;2022-08-20T07:12:30;94553.38;;;33.96;40.67
6132;BME280;3097;42.692;23.278;2022-08-20T07:14:56;94549.16;;;33.98;40.71
6132;BME280;3097;42.692;23.278;2022-08-20T07:17:21;94553.47;;;34.28;40.45
6132;BME280;3097;42.692;23.278;2022-08-20T07:19:47;94553.09;;;34.47;40.19
6132;BME280;3097;42.692;23.278;2022-08-20T07:22:12;94553.09;;;34.61;40.83
6132;BME280;3097;42.692;23.278;2022-08-20T07:24:39;94539.34;;;34.52;38.69
6132;BME280;3097;42.692;23.278;2022-08-20T07:27:04;94547.34;;;34.24;40.26
6132;BME280;3097;42.692;23.278;2022-08-20T07:29:30;94551.88;;;34.05;40.27
6132;BME280;3097;42.692;23.278;2022-08-20T07:32:16;94538.25;;;33.45;40.99
6132;BME280;3097;42.692;23.278;2022-08-20T07:35:05;94542.84;;;33.55;41.66
6132;BME280;3097;42.692;23.278;2022-08-20T07:37:39;94550.06;;;33.48;40.98
6132;BME280;3097;42.692;23.278;2022-08-20T07:40:11;94551.16;;;33.32;41.72
6132;BME280;3097;42.692;23.278;2022-08-20T07:42:38;94548.88;;;33.34;41.57
6132;BME280;3097;42.692;23.278;2022-08-20T07:45:10;94553.19;;;33.57;41.48
6132;BME280;3097;42.692;23.278;2022-08-20T07:47:36;94557.38;;;33.58;41.51
6132;BME280;3097;42.692;23.278;2022-08-20T07:50:04;94546.56;;;33.33;40.82
6132;BME280;3097;42.692;23.278;2022-08-20T07:52:30;94545.44;;;33.34;43.04
6132;BME280;3097;42.692;23.278;2022-08-20T07:54:58;94540.56;;;33.50;42.04
6132;BME280;3097;42.692;23.278;2022-08-20T07:57:24;94552.94;;;33.79;41.94
6132;BME280;3097;42.692;23.278;2022-08-20T07:59:49;94550.38;;;34.18;41.54
6132;BME280;3097;42.692;23.278;2022-08-20T08:02:15;94535.50;;;34.39;39.38
6132;BME280;3097;42.692;23.278;2022-08-20T08:04:40;94543.19;;;34.58;40.68
6132;BME280;3097;42.692;23.278;2022-08-20T08:07:05;94547.00;;;34.92;41.99
6132;BME280;3097;42.692;23.278;2022-08-20T08:09:32;94539.72;;;35.25;39.64
6132;BME280;3097;42.692;23.278;2022-08-20T08:11:58;94521.72;;;35.04;38.92
6132;BME280;3097;42.692;23.278;2022-08-20T08:14:28;94543.94;;;34.98;38.65
6132;BME280;3097;42.692;23.278;2022-08-20T08:16:57;94537.81;;;34.83;39.29
6132;BME280;3097;42.692;23.278;2022-08-20T08:19:25;94537.84;;;34.93;38.92
6132;BME280;3097;42.692;23.278;2022-08-20T08:21:54;94528.28;;;34.85;39.08
6132;BME280;3097;42.692;23.278;2022-08-20T08:24:20;94532.47;;;35.01;39.23
6132;BME280;3097;42.692;23.278;2022-08-20T08:26:45;94524.81;;;35.03;39.04
6132;BME280;3097;42.692;23.278;2022-08-20T08:29:14;94522.91;;;34.92;39.17
6132;BME280;3097;42.692;23.278;2022-08-20T08:31:41;94521.75;;;34.83;39.65
6132;BME280;3097;42.692;23.278;2022-08-20T08:34:07;94516.78;;;34.85;39.33
6132;BME280;3097;42.692;23.278;2022-08-20T08:36:33;94519.44;;;34.81;38.21
6132;BME280;3097;42.692;23.278;2022-08-20T08:38:58;94517.16;;;34.83;37.97
6132;BME280;3097;42.692;23.278;2022-08-20T08:41:38;94515.63;;;34.89;39.22
6132;BME280;3097;42.692;23.278;2022-08-20T08:44:14;94511.41;;;34.99;39.56
6132;BME280;3097;42.692;23.278;2022-08-20T08:46:46;94498.00;;;35.03;38.73
6132;BME280;3097;42.692;23.278;2022-08-20T08:49:17;94510.22;;;35.18;37.79
6132;BME280;3097;42.692;23.278;2022-08-20T08:51:49;94501.47;;;34.85;38.55
6132;BME280;3097;42.692;23.278;2022-08-20T08:54:20;94505.69;;;34.79;39.86
6132;BME280;3097;42.692;23.278;2022-08-20T08:56:47;94501.84;;;34.94;40.36
6132;BME280;3097;42.692;23.278;2022-08-20T08:59:12;94490.31;;;35.15;38.41
6132;BME280;3097;42.692;23.278;2022-08-20T09:01:47;94483.41;;;35.21;38.70
6132;BME280;3097;42.692;23.278;2022-08-20T09:04:15;94485.34;;;35.14;38.55
6132;BME280;3097;42.692;23.278;2022-08-20T09:06:41;94486.53;;;34.99;38.38
6132;BME280;3097;42.692;23.278;2022-08-20T09:09:18;94479.25;;;34.67;38.52
6132;BME280;3097;42.692;23.278;2022-08-20T09:11:47;94483.88;;;34.35;39.73
6132;BME280;3097;42.692;23.278;2022-08-20T09:14:12;94483.50;;;34.26;40.39
6132;BME280;3097;42.692;23.278;2022-08-20T09:16:38;94495.34;;;34.39;40.40
6132;BME280;3097;42.692;23.278;2022-08-20T09:19:03;94499.41;;;33.76;40.69
6132;BME280;3097;42.692;23.278;2022-08-20T09:21:29;94494.75;;;33.62;41.98
6132;BME280;3097;42.692;23.278;2022-08-20T09:23:54;94492.88;;;33.70;41.02
6132;BME280;3097;42.692;23.278;2022-08-20T09:26:20;94488.66;;;33.69;40.75
6132;BME280;3097;42.692;23.278;2022-08-20T09:28:45;94487.59;;;33.80;42.70
6132;BME280;3097;42.692;23.278;2022-08-20T09:31:10;94476.41;;;33.61;40.43
6132;BME280;3097;42.692;23.278;2022-08-20T09:33:36;94484.81;;;33.56;41.53
6132;BME280;3097;42.692;23.278;2022-08-20T09:36:02;94474.38;;;33.26;40.84
6132;BME280;3097;42.692;23.278;2022-08-20T09:38:27;94475.06;;;33.12;41.83
6132;BME280;3097;42.692;23.278;2022-08-20T09:40:53;94481.16;;;33.16;41.09
6132;BME280;3097;42.692;23.278;2022-08-20T09:43:18;94478.47;;;33.09;41.82
6132;BME280;3097;42.692;23.278;2022-08-20T09:45:44;94470.03;;;33.03;42.70
6132;BME280;3097;42.692;23.278;2022-08-20T09:48:09;94470.97;;;33.32;42.23
6132;BME280;3097;42.692;23.278;2022-08-20T09:50:35;94464.16;;;33.46;42.32
6132;BME280;3097;42.692;23.278;2022-08-20T09:53:03;94474.47;;;33.47;40.38
6132;BME280;3097;42.692;23.278;2022-08-20T09:55:34;94462.25;;;33.42;39.99
6132;BME280;3097;42.692;23.278;2022-08-20T09:58:05;94469.88;;;33.48;40.27
6132;BME280;3097;42.692;23.278;2022-08-20T10:00:32;94461.81;;;33.33;41.67
6132;BME280;3097;42.692;23.278;2022-08-20T10:02:58;94463.38;;;33.41;40.70
6132;BME280;3097;42.692;23.278;2022-08-20T10:05:25;94463.75;;;33.40;39.86
6132;BME280;3097;42.692;23.278;2022-08-20T10:07:50;94469.81;;;33.26;40.10
6132;BME280;3097;42.692;23.278;2022-08-20T10:10:16;94464.84;;;33.28;40.94
6132;BME280;3097;42.692;23.278;2022-08-20T10:12:41;94465.59;;;33.25;39.95
6132;BME280;3097;42.692;23.278;2022-08-20T10:15:08;94450.94;;;33.01;39.56
6132;BME280;3097;42.692;23.278;2022-08-20T10:17:37;94465.84;;;33.02;39.83
6132;BME280;3097;42.692;23.278;2022-08-20T10:20:03;94462.88;;;33.15;40.29
6132;BME280;3097;42.692;23.278;2022-08-20T10:22:29;94455.69;;;33.22;40.89
6132;BME280;3097;42.692;23.278;2022-08-20T10:24:56;94449.63;;;33.36;41.15
6132;BME280;3097;42.692;23.278;2022-08-20T10:27:22;94461.50;;;33.56;39.18
6132;BME280;3097;42.692;23.278;2022-08-20T10:29:47;94455.03;;;33.61;39.38
6132;BME280;3097;42.692;23.278;2022-08-20T10:32:14;94449.28;;;33.52;39.76
6132;BME280;3097;42.692;23.278;2022-08-20T10:34:42;94451.97;;;33.52;38.67
6132;BME280;3097;42.692;23.278;2022-08-20T10:37:09;94446.59;;;33.45;38.22
6132;BME280;3097;42.692;23.278;2022-08-20T10:39:39;94441.16;;;33.23;38.72
6132;BME280;3097;42.692;23.278;2022-08-20T10:42:05;94413.53;;;32.91;39.18
6132;BME280;3097;42.692;23.278;2022-08-20T10:44:30;94434.94;;;33.05;40.39
6132;BME280;3097;42.692;23.278;2022-08-20T10:46:56;94433.06;;;33.16;40.15
6132;BME280;3097;42.692;23.278;2022-08-20T10:49:21;94435.00;;;33.19;40.14
6132;BME280;3097;42.692;23.278;2022-08-20T10:51:47;94422.00;;;33.11;39.76
6132;BME280;3097;42.692;23.278;2022-08-20T10:54:12;94438.00;;;33.03;39.57
6132;BME280;3097;42.692;23.278;2022-08-20T10:56:38;94419.59;;;32.88;39.74
6132;BME280;3097;42.692;23.278;2022-08-20T10:59:03;94421.09;;;32.82;40.72
6132;BME280;3097;42.692;23.278;2022-08-20T11:01:28;94427.66;;;32.98;40.86
6132;BME280;3097;42.692;23.278;2022-08-20T11:03:54;94432.66;;;33.00;40.34
6132;BME280;3097;42.692;23.278;2022-08-20T11:06:20;94407.91;;;33.17;39.91
6132;BME280;3097;42.692;23.278;2022-08-20T11:08:45;94425.59;;;33.47;38.78
6132;BME280;3097;42.692;23.278;2022-08-20T11:11:11;94422.56;;;33.52;39.05
6132;BME280;3097;42.692;23.278;2022-08-20T11:13:36;94417.22;;;33.52;38.40
6132;BME280;3097;42.692;23.278;2022-08-20T11:16:02;94417.56;;;33.54;38.72
6132;BME280;3097;42.692;23.278;2022-08-20T11:18:29;94408.81;;;33.57;38.19
6132;BME280;3097;42.692;23.278;2022-08-20T11:20:55;94391.56;;;33.29;38.03
6132;BME280;3097;42.692;23.278;2022-08-20T11:23:20;94391.59;;;33.36;39.11
6132;BME280;3097;42.692;23.278;2022-08-20T11:25:47;94403.06;;;33.48;38.84
6132;BME280;3097;42.692;23.278;2022-08-20T11:28:13;94374.00;;;33.32;38.32
6132;BME280;3097;42.692;23.278;2022-08-20T11:30:39;94394.25;;;33.29;38.52
6132;BME280;3097;42.692;23.278;2022-08-20T11:33:04;94384.28;;;33.26;39.32
6132;BME280;3097;42.692;23.278;2022-08-20T11:35:31;94376.28;;;33.23;39.32
6132;BME280;3097;42.692;23.278;2022-08-20T11:37:58;94367.09;;;33.20;39.44
6132;BME280;3097;42.692;23.278;2022-08-20T11:40:25;94359.44;;;33.15;38.74
6132;BME280;3097;42.692;23.278;2022-08-20T11:42:50;94373.59;;;33.23;38.85
6132;BME280;3097;42.692;23.278;2022-08-20T11:45:16;94374.28;;;33.16;38.92
6132;BME280;3097;42.692;23.278;2022-08-20T11:47:42;94370.06;;;33.04;38.75
6132;BME280;3097;42.692;23.278;2022-08-20T11:50:14;94373.47;;;32.98;38.41
6132;BME280;3097;42.692;23.278;2022-08-20T11:52:40;94363.84;;;32.76;38.22
6132;BME280;3097;42.692;23.278;2022-08-20T11:55:08;94365.34;;;32.73;38.47
6132;BME280;3097;42.692;23.278;2022-08-20T11:57:37;94370.69;;;32.73;39.20
6132;BME280;3097;42.692;23.278;2022-08-20T12:00:07;94363.34;;;32.59;39.17
6132;BME280;3097;42.692;23.278;2022-08-20T12:02:39;94372.91;;;32.60;38.96
6132;BME280;3097;42.692;23.278;2022-08-20T12:05:05;94364.41;;;32.44;40.25
6132;BME280;3097;42.692;23.278;2022-08-20T12:07:31;94352.06;;;32.22;41.32
6132;BME280;3097;42.692;23.278;2022-08-20T12:09:56;94376.44;;;32.20;41.05
6132;BME280;3097;42.692;23.278;2022-08-20T12:12:22;94374.16;;;32.19;41.17
6132;BME280;3097;42.692;23.278;2022-08-20T12:14:49;94369.56;;;32.16;42.33
6132;BME280;3097;42.692;23.278;2022-08-20T12:17:21;94382.53;;;32.17;42.26
6132;BME280;3097;42.692;23.278;2022-08-20T12:19:48;94367.59;;;32.09;41.42
6132;BME280;3097;42.692;23.278;2022-08-20T12:22:13;94383.25;;;32.14;42.02
6132;BME280;3097;42.692;23.278;2022-08-20T12:24:39;94390.03;;;32.05;42.08
6132;BME280;3097;42.692;23.278;2022-08-20T12:27:12;94391.91;;;32.04;41.89
6132;BME280;3097;42.692;23.278;2022-08-20T12:29:40;94393.03;;;32.00;41.50
6132;BME280;3097;42.692;23.278;2022-08-20T12:32:06;94393.03;;;32.00;42.39
6132;BME280;3097;42.692;23.278;2022-08-20T12:34:33;94358.88;;;31.68;43.73
6132;BME280;3097;42.692;23.278;2022-08-20T12:37:04;94390.19;;;31.78;45.09
6132;BME280;3097;42.692;23.278;2022-08-20T12:39:31;94377.00;;;31.56;45.88
6132;BME280;3097;42.692;23.278;2022-08-20T12:41:59;94398.34;;;31.59;45.30
6132;BME280;3097;42.692;23.278;2022-08-20T12:44:28;94365.59;;;31.22;46.52
6132;BME280;3097;42.692;23.278;2022-08-20T12:47:32;94403.38;;;31.31;49.78
6132;BME280;3097;42.692;23.278;2022-08-20T12:50:02;94406.22;;;31.11;51.28
6132;BME280;3097;42.692;23.278;2022-08-20T12:52:30;94407.16;;;30.96;51.83
6132;BME280;3097;42.692;23.278;2022-08-20T12:54:56;94393.53;;;30.75;53.44
6132;BME280;3097;42.692;23.278;2022-08-20T13:00:04;94386.56;;;30.37;54.76
6132;BME280;3097;42.692;23.278;2022-08-20T13:02:30;94379.00;;;30.16;55.00
6132;BME280;3097;42.692;23.278;2022-08-20T13:04:55;94377.53;;;29.73;55.53
6132;BME280;3097;42.692;23.278;2022-08-20T13:07:21;94373.94;;;29.62;56.55
6132;BME280;3097;42.692;23.278;2022-08-20T13:09:46;94367.91;;;29.65;56.78
6132;BME280;3097;42.692;23.278;2022-08-20T13:12:12;94345.34;;;29.78;56.87
6132;BME280;3097;42.692;23.278;2022-08-20T13:14:39;94337.69;;;29.96;56.34
6132;BME280;3097;42.692;23.278;2022-08-20T13:17:05;94341.31;;;30.11;56.54
6132;BME280;3097;42.692;23.278;2022-08-20T13:19:33;94344.34;;;30.09;56.51
6132;BME280;3097;42.692;23.278;2022-08-20T13:21:58;94364.91;;;30.12;56.05